| time (UTC) | temp F | wind direction | speed MPH | gust MPH | rain 1hr in | rain 24hr in | rain mn in | humidity % | barometer mb |
| 20260505000127 | 80 | 0.0 | 0.0 | 0.00 | 0.00 | 0.00 | 98 | 995.2 | |
| 20260504235121 | 80 | 0.0 | 0.0 | 0.00 | 0.00 | 0.00 | 97 | 995.0 | |
| 20260504234116 | 79 | 0.0 | 0.0 | 0.00 | 0.00 | 0.00 | 96 | 994.9 | |
| 20260504233110 | 80 | 0.0 | 0.0 | 0.00 | 0.00 | 0.00 | 95 | 994.7 | |
| 20260504232105 | 80 | 0.0 | 0.0 | 0.00 | 0.00 | 0.00 | 95 | 994.5 | |
| 20260504231059 | 80 | 0.0 | 0.0 | 0.00 | 0.00 | 0.00 | 95 | 994.2 | |
| 20260504230053 | 80 | 0.0 | 0.0 | 0.00 | 0.00 | 0.00 | 94 | 994.3 | |
| 20260504225048 | 80 | 0.0 | 0.0 | 0.00 | 0.00 | 0.00 | 95 | 994.1 | |
| 20260504224042 | 80 | 0.0 | 0.0 | 0.00 | 0.00 | 0.00 | 95 | 994.1 | |
| 20260504223037 | 80 | 0.0 | 0.0 | 0.00 | 0.00 | 0.00 | 95 | 994.0 | |
| 20260504222031 | 80 | 0.0 | 0.0 | 0.00 | 0.00 | 0.00 | 93 | 993.9 | |
| 20260504221025 | 80 | 0.0 | 0.0 | 0.00 | 0.00 | 0.00 | 93 | 993.8 | |
| 20260504220020 | 80 | 0.0 | 0.0 | 0.00 | 0.00 | 0.00 | 92 | 993.6 | |
| 20260504215014 | 80 | 0.0 | 0.0 | 0.00 | 0.00 | 0.00 | 92 | 993.7 | |
| 20260504214009 | 80 | 0.0 | 0.0 | 0.00 | 0.00 | 0.00 | 92 | 993.5 | |
| 20260504213003 | 81 | 0.0 | 0.0 | 0.00 | 0.00 | 0.00 | 91 | 993.1 | |
| 20260504211642 | 81 | 0.0 | 0.0 | 0.00 | 0.00 | 0.00 | 91 | 993.2 | |
| 20260504210637 | 81 | 0.0 | 0.0 | 0.00 | 0.00 | 0.00 | 91 | 993.4 | |
| 20260504205631 | 81 | 0.0 | 0.0 | 0.00 | 0.00 | 0.00 | 90 | 993.5 | |
| 20260504204626 | 81 | 0.0 | 0.0 | 0.00 | 0.00 | 0.00 | 90 | 993.6 | |
| 20260504203620 | 81 | 0.0 | 0.0 | 0.00 | 0.00 | 0.00 | 89 | 993.4 | |
| 20260504202614 | 81 | 0.0 | 0.0 | 0.00 | 0.00 | 0.00 | 88 | 993.4 | |
| 20260504201609 | 81 | 0.0 | 0.0 | 0.00 | 0.00 | 0.00 | 89 | 993.5 | |
| 20260504200603 | 81 | 0.0 | 0.0 | 0.00 | 0.00 | 0.00 | 89 | 993.7 | |
| 20260504195558 | 81 | 0.0 | 0.0 | 0.00 | 0.00 | 0.00 | 89 | 994.0 | |
| 20260504194552 | 81 | 0.0 | 0.0 | 0.00 | 0.00 | 0.00 | 90 | 994.1 | |
| 20260504193547 | 81 | 0.0 | 0.0 | 0.00 | 0.00 | 0.00 | 87 | 994.2 | |
| 20260504192541 | 81 | 0.0 | 0.0 | 0.00 | 0.00 | 0.00 | 87 | 994.5 | |
| 20260504191536 | 81 | 0.0 | 0.0 | 0.00 | 0.00 | 0.00 | 86 | 994.5 | |
| 20260504190530 | 81 | 0.0 | 0.0 | 0.00 | 0.00 | 0.00 | 85 | 994.6 | |
| 20260504185524 | 82 | 0.0 | 0.0 | 0.00 | 0.00 | 0.00 | 85 | 994.7 | |
| 20260504184519 | 82 | 0.0 | 0.0 | 0.00 | 0.00 | 0.00 | 84 | 995.0 | |
| 20260504183513 | 82 | 0.0 | 0.0 | 0.00 | 0.00 | 0.00 | 84 | 995.1 | |
| 20260504182508 | 82 | 0.0 | 0.0 | 0.00 | 0.00 | 0.00 | 83 | 995.1 | |
| 20260504181502 | 82 | 0.0 | 0.0 | 0.00 | 0.00 | 0.00 | 84 | 995.0 | |
| 20260504180457 | 82 | 0.0 | 0.0 | 0.00 | 0.00 | 0.00 | 82 | 995.0 | |
| 20260504175451 | 82 | 0.0 | 0.0 | 0.00 | 0.00 | 0.00 | 84 | 994.9 | |
| 20260504174445 | 82 | 0.0 | 0.0 | 0.00 | 0.00 | 0.00 | 84 | 995.0 | |
| 20260504173440 | 82 | 0.0 | 0.0 | 0.00 | 0.00 | 0.00 | 82 | 994.9 | |
| 20260504172434 | 82 | 0.0 | 0.0 | 0.00 | 0.00 | 0.00 | 81 | 994.6 | |
| 20260504171429 | 82 | 0.0 | 0.0 | 0.00 | 0.00 | 0.00 | 81 | 994.1 | |
| 20260504170423 | 82 | 0.0 | 0.0 | 0.00 | 0.00 | 0.00 | 78 | 994.2 | |
| 20260504160350 | 83 | 0.0 | 0.0 | 0.00 | 0.00 | 0.00 | 77 | 995.1 | |
| 20260504150932 | 84 | 0.0 | 0.0 | 0.00 | 0.00 | 0.00 | 69 | 995.3 | |
| 20260504081552 | 93 | 0.0 | 0.0 | 0.00 | 0.00 | 0.00 | 38 | 988.9 | |
| 20260504080546 | 93 | 0.0 | 0.0 | 0.00 | 0.00 | 0.00 | 41 | 989.1 | |
| 20260504050406 | 89 | 0.0 | 0.0 | 0.00 | 0.00 | 0.00 | 46 | 992.4 | |
| 20260504045400 | 89 | 0.0 | 0.0 | 0.00 | 0.00 | 0.00 | 45 | 992.7 | |
| 20260504044355 | 89 | 0.0 | 0.0 | 0.00 | 0.00 | 0.00 | 49 | 992.7 | |
| 20260504043349 | 89 | 0.0 | 0.0 | 0.00 | 0.00 | 0.00 | 50 | 992.9 | |
| 20260504042343 | 89 | 0.0 | 0.0 | 0.00 | 0.00 | 0.00 | 51 | 993.0 | |
| 20260504041338 | 89 | 0.0 | 0.0 | 0.00 | 0.00 | 0.00 | 50 | 993.1 | |
| 20260504040332 | 88 | 0.0 | 0.0 | 0.00 | 0.00 | 0.00 | 51 | 993.2 | |
| 20260504035327 | 88 | 0.0 | 0.0 | 0.00 | 0.00 | 0.00 | 52 | 993.3 | |
| 20260504034321 | 88 | 0.0 | 0.0 | 0.00 | 0.00 | 0.00 | 53 | 993.5 | |
| 20260504033316 | 88 | 0.0 | 0.0 | 0.00 | 0.00 | 0.00 | 53 | 993.6 | |
| 20260504032310 | 87 | 0.0 | 0.0 | 0.00 | 0.00 | 0.00 | 54 | 993.6 | |
| 20260504031305 | 87 | 0.0 | 0.0 | 0.00 | 0.00 | 0.00 | 53 | 993.8 | |
| 20260504030303 | 87 | 0.0 | 0.0 | 0.00 | 0.00 | 0.00 | 53 | 993.8 | |
| 20260504025252 | 87 | 0.0 | 0.0 | 0.00 | 0.00 | 0.00 | 54 | 993.9 | |
| 20260504024246 | 87 | 0.0 | 0.0 | 0.00 | 0.00 | 0.00 | 53 | 994.0 | |
| 20260504022231 | 87 | 0.0 | 0.0 | 0.00 | 0.00 | 0.00 | 56 | 994.1 | |
| 20260504021226 | 87 | 0.0 | 0.0 | 0.00 | 0.00 | 0.00 | 56 | 994.1 | |
| 20260504020220 | 86 | 0.0 | 0.0 | 0.00 | 0.00 | 0.00 | 57 | 994.1 | |
| 20260504015215 | 86 | 0.0 | 0.0 | 0.00 | 0.00 | 0.00 | 59 | 994.0 | |
| 20260504014209 | 86 | 0.0 | 0.0 | 0.00 | 0.00 | 0.00 | 58 | 993.9 | |
| 20260504013200 | 86 | 0.0 | 0.0 | 0.00 | 0.00 | 0.00 | 61 | 993.8 | |
| 20260504012155 | 86 | 0.0 | 0.0 | 0.00 | 0.00 | 0.00 | 62 | 993.8 | |
| 20260504011149 | 86 | 0.0 | 0.0 | 0.00 | 0.00 | 0.00 | 63 | 993.7 | |
| 20260504010143 | 85 | 0.0 | 0.0 | 0.00 | 0.00 | 0.00 | 64 | 993.6 | |
| 20260504005138 | 85 | 0.0 | 0.0 | 0.00 | 0.00 | 0.00 | 63 | 993.4 | |
| 20260504004132 | 85 | 0.0 | 0.0 | 0.00 | 0.00 | 0.00 | 63 | 993.3 | |
| 20260504003127 | 85 | 0.0 | 0.0 | 0.00 | 0.00 | 0.00 | 61 | 993.1 | |
| 20260504002121 | 84 | 0.0 | 0.0 | 0.00 | 0.00 | 0.00 | 61 | 993.0 | |
| 20260504001116 | 84 | 0.0 | 0.0 | 0.00 | 0.00 | 0.00 | 59 | 993.1 |